createdAt,value
2018-02-19T00:00:47.194Z,1.70
2018-02-19T00:01:47.194Z,1.80
2018-02-19T00:02:47.191Z,1.80
2018-02-19T00:03:47.198Z,1.60
2018-02-19T00:04:47.200Z,1.50
2018-02-19T00:05:47.204Z,1.50
2018-02-19T00:06:47.199Z,1.40
2018-02-19T00:07:47.203Z,1.50
2018-02-19T00:08:47.202Z,1.20
2018-02-19T00:09:47.211Z,1.10
2018-02-19T00:10:47.211Z,1.10
2018-02-19T00:11:47.213Z,1.10
2018-02-19T00:12:47.213Z,1.10
2018-02-19T00:13:47.217Z,1.10
2018-02-19T00:14:47.212Z,1.00
2018-02-19T00:15:47.216Z,1.00
2018-02-19T00:16:47.222Z,1.20
2018-02-19T00:17:47.223Z,1.10
2018-02-19T00:18:47.219Z,1.20
2018-02-19T00:19:47.220Z,1.50
2018-02-19T00:20:47.229Z,1.20
2018-02-19T00:21:47.225Z,1.40
2018-02-19T00:22:47.227Z,1.40
2018-02-19T00:23:47.229Z,1.40
2018-02-19T00:24:47.236Z,1.40
2018-02-19T00:25:47.238Z,1.00
2018-02-19T00:26:47.238Z,1.10
2018-02-19T00:27:47.234Z,1.10
2018-02-19T00:28:47.243Z,1.30
2018-02-19T00:29:47.238Z,1.30
2018-02-19T00:30:47.247Z,1.50
2018-02-19T00:31:47.241Z,1.20
2018-02-19T00:32:47.244Z,1.20
2018-02-19T00:33:47.247Z,1.40
2018-02-19T00:34:47.253Z,1.00
2018-02-19T00:35:47.281Z,1.40
2018-02-19T00:36:47.257Z,1.00
2018-02-19T00:37:47.258Z,1.10
2018-02-19T00:38:47.258Z,1.30
2018-02-19T00:39:47.262Z,1.20
2018-02-19T00:40:47.259Z,1.20
2018-02-19T00:41:47.265Z,1.20
2018-02-19T00:42:47.264Z,1.40
2018-02-19T00:43:47.264Z,1.10
2018-02-19T00:44:47.271Z,1.30
2018-02-19T00:45:47.275Z,1.20
2018-02-19T00:46:47.278Z,1.40
2018-02-19T00:47:47.276Z,1.30
2018-02-19T00:48:47.279Z,1.30
2018-02-19T00:49:47.278Z,1.20
2018-02-19T00:50:47.276Z,1.60
2018-02-19T00:51:47.277Z,1.30
2018-02-19T00:52:47.278Z,1.40
2018-02-19T00:53:47.280Z,1.70
2018-02-19T00:54:47.289Z,2.10
2018-02-19T00:55:47.283Z,1.70
2018-02-19T00:56:47.286Z,1.80
2018-02-19T00:57:47.287Z,2.00
2018-02-19T00:58:47.295Z,1.90
2018-02-19T00:59:47.289Z,1.80
2018-02-19T01:00:47.297Z,1.30
2018-02-19T01:01:47.300Z,1.40
2018-02-19T01:02:47.295Z,1.30
2018-02-19T01:03:47.301Z,1.20
2018-02-19T01:04:47.304Z,1.50
2018-02-19T01:05:47.304Z,1.40
2018-02-19T01:06:47.300Z,1.10
2018-02-19T01:07:47.308Z,1.40
2018-02-19T01:08:47.303Z,1.20
2018-02-19T01:09:47.312Z,1.30
2018-02-19T01:10:47.312Z,1.40
2018-02-19T01:11:47.315Z,1.60
2018-02-19T01:12:47.315Z,1.50
2018-02-19T01:13:47.317Z,1.60
2018-02-19T01:14:47.319Z,1.90
2018-02-19T01:15:47.321Z,1.70
2018-02-19T01:16:47.321Z,1.60
2018-02-19T01:17:47.322Z,1.90
2018-02-19T01:18:47.328Z,1.60
2018-02-19T01:19:47.322Z,1.60
2018-02-19T01:20:47.330Z,1.80
2018-02-19T01:21:47.324Z,2.00
2018-02-19T01:22:47.331Z,1.50
2018-02-19T01:23:47.336Z,1.70
2018-02-19T01:24:47.334Z,1.80
2018-02-19T01:25:47.336Z,1.60
2018-02-19T01:26:47.333Z,1.70
2018-02-19T01:27:47.332Z,1.70
2018-02-19T01:28:47.340Z,1.70
2018-02-19T01:29:47.337Z,1.70
2018-02-19T01:30:47.343Z,1.80
2018-02-19T01:31:47.339Z,1.60
2018-02-19T01:32:47.341Z,1.80
2018-02-19T01:33:47.343Z,1.20
2018-02-19T01:34:47.345Z,1.40
2018-02-19T01:35:47.350Z,1.60
2018-02-19T01:36:47.348Z,1.40
2018-02-19T01:37:47.350Z,1.30
2018-02-19T01:38:47.352Z,1.40
2018-02-19T01:39:47.352Z,1.40
2018-02-19T01:40:47.359Z,1.60
2018-02-19T01:41:47.360Z,1.60
2018-02-19T01:42:47.358Z,1.50
2018-02-19T01:43:47.360Z,1.50
2018-02-19T01:44:47.366Z,1.30
2018-02-19T01:45:47.361Z,1.50
2018-02-19T01:46:47.365Z,1.20
2018-02-19T01:47:47.371Z,1.20
2018-02-19T01:48:47.371Z,1.20
2018-02-19T01:49:47.368Z,1.60
2018-02-19T01:50:47.376Z,1.40
2018-02-19T01:51:47.371Z,1.40
2018-02-19T01:52:47.377Z,1.50
2018-02-19T01:53:47.377Z,1.30
2018-02-19T01:54:47.381Z,1.70
2018-02-19T01:55:47.383Z,1.30
2018-02-19T01:56:47.384Z,1.40
2018-02-19T01:57:47.382Z,1.50
2018-02-19T01:58:47.386Z,1.40
2018-02-19T01:59:47.390Z,1.20
2018-02-19T02:00:47.385Z,1.30
2018-02-19T02:01:47.389Z,1.40
2018-02-19T02:02:47.394Z,1.40
2018-02-19T02:03:47.390Z,1.30
2018-02-19T02:04:47.397Z,1.60
2018-02-19T02:05:47.393Z,1.40
2018-02-19T02:06:47.402Z,1.30
2018-02-19T02:07:47.401Z,1.50
2018-02-19T02:08:47.401Z,1.50
2018-02-19T02:09:47.410Z,1.50
2018-02-19T02:10:47.405Z,1.80
2018-02-19T02:11:47.403Z,1.60
2018-02-19T02:12:47.411Z,1.60
2018-02-19T02:13:47.407Z,1.70
2018-02-19T02:14:47.416Z,1.60
2018-02-19T02:15:47.409Z,1.80
2018-02-19T02:16:47.416Z,1.80
2018-02-19T02:17:47.418Z,1.70
2018-02-19T02:18:47.415Z,1.90
2018-02-19T02:19:47.427Z,1.60
2018-02-19T02:20:47.422Z,1.80
2018-02-19T02:21:47.426Z,1.60
2018-02-19T02:22:47.429Z,1.70
2018-02-19T02:23:47.421Z,1.70
2018-02-19T02:24:47.430Z,1.90
2018-02-19T02:25:47.435Z,1.70
2018-02-19T02:26:47.427Z,1.70
2018-02-19T02:27:47.432Z,1.60
2018-02-19T02:28:47.436Z,1.70
2018-02-19T02:29:47.439Z,1.70
2018-02-19T02:30:47.434Z,1.80
2018-02-19T02:31:47.435Z,1.50
2018-02-19T02:32:47.436Z,1.40
2018-02-19T02:33:47.446Z,1.50
2018-02-19T02:34:47.440Z,1.50
2018-02-19T02:35:47.442Z,1.50
2018-02-19T02:36:47.447Z,1.70
2018-02-19T02:37:47.451Z,1.80
2018-02-19T02:38:47.446Z,1.70
2018-02-19T02:39:47.453Z,1.50
2018-02-19T02:40:47.448Z,1.70
2018-02-19T02:41:47.450Z,1.60
2018-02-19T02:42:47.453Z,1.70
2018-02-19T02:43:47.451Z,1.50
2018-02-19T02:44:47.454Z,1.60
2018-02-19T02:45:47.462Z,1.30
2018-02-19T02:46:47.464Z,1.30
2018-02-19T02:47:47.458Z,1.40
2018-02-19T02:48:47.466Z,1.30
2018-02-19T02:49:47.467Z,1.30
2018-02-19T02:50:47.469Z,1.20
2018-02-19T02:51:47.471Z,1.10
2018-02-19T02:52:47.466Z,1.20
2018-02-19T02:53:47.471Z,1.60
2018-02-19T02:54:47.474Z,1.40
2018-02-19T02:55:47.477Z,1.20
2018-02-19T02:56:47.476Z,1.10
2018-02-19T02:57:47.472Z,1.10
2018-02-19T02:58:47.482Z,0.90
2018-02-19T02:59:47.478Z,1.00
2018-02-19T03:00:47.484Z,1.10
2018-02-19T03:01:47.485Z,1.20
2018-02-19T03:02:47.480Z,0.90
2018-02-19T03:03:47.486Z,1.20
2018-02-19T03:04:47.483Z,1.10
2018-02-19T03:05:47.486Z,1.40
2018-02-19T03:06:47.499Z,1.20
2018-02-19T03:07:47.486Z,1.20
2018-02-19T03:08:47.488Z,1.30
2018-02-19T03:09:47.495Z,1.10
2018-02-19T03:10:47.494Z,1.10
2018-02-19T03:11:47.495Z,1.20
2018-02-19T03:12:47.494Z,1.30
2018-02-19T03:13:47.497Z,1.10
2018-02-19T03:14:47.496Z,1.00
2018-02-19T03:15:47.497Z,1.20
2018-02-19T03:16:47.499Z,1.10
2018-02-19T03:17:47.508Z,1.30
2018-02-19T03:18:47.500Z,1.20
2018-02-19T03:19:47.507Z,1.20
2018-02-19T03:20:47.508Z,1.10
2018-02-19T03:21:47.506Z,1.20
2018-02-19T03:22:47.510Z,1.30
2018-02-19T03:23:47.512Z,1.20
2018-02-19T03:24:47.515Z,1.10
2018-02-19T03:25:47.516Z,1.30
2018-02-19T03:26:47.518Z,1.30
2018-02-19T03:27:47.517Z,1.20
2018-02-19T03:28:47.521Z,1.10
2018-02-19T03:29:47.527Z,1.10
2018-02-19T03:30:47.523Z,1.10
2018-02-19T03:31:47.524Z,1.00
2018-02-19T03:32:47.519Z,1.30
2018-02-19T03:33:47.527Z,1.20
2018-02-19T03:34:47.528Z,1.20
2018-02-19T03:35:47.530Z,1.20
2018-02-19T03:36:47.523Z,1.00
2018-02-19T03:37:47.532Z,1.20
2018-02-19T03:38:47.527Z,1.00
2018-02-19T03:39:47.527Z,1.10
2018-02-19T03:40:47.529Z,0.80
2018-02-19T03:41:47.533Z,1.20
2018-02-19T03:42:47.532Z,1.00
2018-02-19T03:43:47.542Z,1.00
2018-02-19T03:44:47.536Z,0.90
2018-02-19T03:45:47.544Z,1.10
2018-02-19T03:46:47.545Z,0.90
2018-02-19T03:47:47.544Z,1.10
2018-02-19T03:48:47.540Z,0.90
2018-02-19T03:49:47.548Z,1.10
2018-02-19T03:50:47.551Z,1.10
2018-02-19T03:51:47.545Z,0.90
2018-02-19T03:52:47.553Z,0.90
2018-02-19T03:53:47.552Z,1.00
2018-02-19T03:54:47.554Z,1.00
2018-02-19T03:55:47.551Z,1.10
2018-02-19T03:56:47.558Z,1.00
2018-02-19T03:57:47.554Z,0.90
2018-02-19T03:58:47.554Z,0.90
2018-02-19T03:59:47.554Z,0.90
2018-02-19T04:00:47.557Z,1.10
2018-02-19T04:01:47.565Z,0.90
2018-02-19T04:02:47.567Z,0.90
2018-02-19T04:03:47.566Z,1.00
2018-02-19T04:04:47.576Z,1.00
2018-02-19T04:05:47.571Z,1.00
2018-02-19T04:06:47.570Z,1.10
2018-02-19T04:07:47.572Z,1.10
2018-02-19T04:08:47.575Z,1.10
2018-02-19T04:09:47.576Z,1.00
2018-02-19T04:10:47.573Z,0.90
2018-02-19T04:11:47.573Z,0.90
2018-02-19T04:12:47.573Z,1.30
2018-02-19T04:13:47.576Z,1.00
2018-02-19T04:14:47.577Z,1.10
2018-02-19T04:15:47.582Z,1.00
2018-02-19T04:16:47.583Z,1.00
2018-02-19T04:17:47.588Z,1.10
2018-02-19T04:18:47.583Z,1.00
2018-02-19T04:19:47.583Z,1.00
2018-02-19T04:20:47.591Z,0.90
2018-02-19T04:21:47.586Z,1.10
2018-02-19T04:22:47.588Z,0.90
2018-02-19T04:23:47.588Z,1.20
2018-02-19T04:24:47.596Z,0.80
2018-02-19T04:25:47.596Z,0.90
2018-02-19T04:26:47.599Z,1.10
2018-02-19T04:27:47.599Z,0.90
2018-02-19T04:28:47.595Z,1.00
2018-02-19T04:29:47.596Z,1.00
2018-02-19T04:30:47.599Z,0.90
2018-02-19T04:31:47.597Z,1.00
2018-02-19T04:32:47.605Z,0.80
2018-02-19T04:33:47.607Z,0.90
2018-02-19T04:34:47.602Z,1.00
2018-02-19T04:35:47.610Z,0.90
2018-02-19T04:36:47.613Z,0.90
2018-02-19T04:37:47.606Z,0.90
2018-02-19T04:38:47.608Z,1.00
2018-02-19T04:39:47.614Z,1.10
2018-02-19T04:40:47.617Z,0.90
2018-02-19T04:41:47.611Z,1.00
2018-02-19T04:42:47.619Z,1.10
2018-02-19T04:43:47.613Z,1.10
2018-02-19T04:44:47.622Z,1.00
2018-02-19T04:45:47.617Z,0.90
2018-02-19T04:46:47.617Z,0.90
2018-02-19T04:47:47.623Z,0.90
2018-02-19T04:48:47.621Z,0.90
2018-02-19T04:49:47.627Z,0.90
2018-02-19T04:50:47.623Z,1.00
2018-02-19T04:51:47.624Z,1.00
2018-02-19T04:52:47.623Z,0.90
2018-02-19T04:53:47.636Z,0.90
2018-02-19T04:54:47.635Z,0.80
2018-02-19T04:55:47.634Z,1.10
2018-02-19T04:56:47.630Z,0.90
2018-02-19T04:57:47.636Z,0.90
2018-02-19T04:58:47.638Z,0.90
2018-02-19T04:59:47.637Z,1.00
2018-02-19T05:00:47.640Z,1.00
2018-02-19T05:01:47.635Z,1.00
2018-02-19T05:02:47.642Z,1.10
2018-02-19T05:03:47.639Z,0.90
2018-02-19T05:04:47.643Z,0.90
2018-02-19T05:05:47.640Z,1.00
2018-02-19T05:06:47.640Z,1.00
2018-02-19T05:07:47.646Z,0.90
2018-02-19T05:08:47.644Z,0.90
2018-02-19T05:09:47.644Z,1.10
2018-02-19T05:10:47.650Z,1.40
2018-02-19T05:11:47.656Z,1.00
2018-02-19T05:12:47.652Z,1.00
2018-02-19T05:13:47.647Z,0.90
2018-02-19T05:14:47.656Z,0.80
2018-02-19T05:15:47.649Z,0.90
2018-02-19T05:16:47.655Z,0.80
2018-02-19T05:17:47.653Z,0.90
2018-02-19T05:18:47.659Z,0.90
2018-02-19T05:19:47.660Z,0.90
2018-02-19T05:20:47.660Z,0.90
2018-02-19T05:21:47.662Z,0.90
2018-02-19T05:22:47.663Z,1.00
2018-02-19T05:23:47.662Z,0.90
2018-02-19T05:24:47.664Z,1.10
2018-02-19T05:25:47.666Z,0.90
2018-02-19T05:26:47.674Z,1.00
2018-02-19T05:27:47.667Z,1.00
2018-02-19T05:28:47.662Z,0.90
2018-02-19T05:29:47.664Z,1.00
2018-02-19T05:30:47.673Z,0.90
2018-02-19T05:31:47.666Z,1.00
2018-02-19T05:32:47.672Z,1.00
2018-02-19T05:33:47.668Z,1.00
2018-02-19T05:34:47.676Z,1.00
2018-02-19T05:35:47.669Z,1.00
2018-02-19T05:36:47.672Z,1.00
2018-02-19T05:37:47.672Z,1.40
2018-02-19T05:38:47.675Z,1.00
2018-02-19T05:39:47.679Z,1.00
2018-02-19T05:40:47.681Z,1.00
2018-02-19T05:41:47.681Z,1.10
2018-02-19T05:42:47.679Z,1.30
2018-02-19T05:43:47.677Z,1.00
2018-02-19T05:44:47.679Z,1.00
2018-02-19T05:45:47.681Z,1.10
2018-02-19T05:46:47.681Z,1.00
2018-02-19T05:47:47.687Z,1.20
2018-02-19T05:48:47.685Z,1.20
2018-02-19T05:49:47.689Z,1.30
2018-02-19T05:50:47.690Z,1.00
2018-02-19T05:51:47.685Z,1.10
2018-02-19T05:52:47.696Z,1.10
2018-02-19T05:53:47.694Z,0.90
2018-02-19T05:54:47.690Z,1.00
2018-02-19T05:55:47.689Z,1.00
2018-02-19T05:56:47.697Z,1.30
2018-02-19T05:57:47.696Z,1.20
2018-02-19T05:58:47.694Z,1.30
2018-02-19T05:59:47.696Z,1.00
2018-02-19T06:00:47.694Z,1.10
2018-02-19T06:01:47.701Z,1.10
2018-02-19T06:02:47.702Z,1.00
2018-02-19T06:03:47.702Z,1.20
2018-02-19T06:04:47.715Z,1.00
2018-02-19T06:05:47.699Z,1.00
2018-02-19T06:06:47.706Z,1.10
2018-02-19T06:07:47.699Z,1.10
2018-02-19T06:08:47.700Z,1.00
2018-02-19T06:09:47.707Z,1.00
2018-02-19T06:10:47.709Z,1.10
2018-02-19T06:11:47.704Z,1.20
2018-02-19T06:12:47.710Z,1.20
2018-02-19T06:13:47.710Z,1.30
2018-02-19T06:14:47.707Z,1.20
2018-02-19T06:15:47.714Z,1.20
2018-02-19T06:16:47.709Z,1.10
2018-02-19T06:17:47.708Z,1.10
2018-02-19T06:18:47.716Z,1.10
2018-02-19T06:19:47.715Z,1.00
2018-02-19T06:20:47.717Z,1.00
2018-02-19T06:21:47.714Z,1.00
2018-02-19T06:22:47.713Z,1.00
2018-02-19T06:23:47.769Z,1.10
2018-02-19T06:24:47.716Z,1.10
2018-02-19T06:25:47.717Z,1.00
2018-02-19T06:26:47.716Z,1.00
2018-02-19T06:27:47.724Z,1.00
2018-02-19T06:28:47.726Z,1.00
2018-02-19T06:29:47.726Z,1.00
2018-02-19T06:30:47.721Z,1.00
2018-02-19T06:31:47.720Z,0.90
2018-02-19T06:32:47.723Z,1.10
2018-02-19T06:33:47.732Z,1.10
2018-02-19T06:34:47.727Z,0.90
2018-02-19T06:35:47.731Z,1.00
2018-02-19T06:36:47.731Z,1.00
2018-02-19T06:37:47.727Z,1.10
2018-02-19T06:38:47.737Z,1.10
2018-02-19T06:39:47.733Z,1.20
2018-02-19T06:40:47.734Z,1.20
2018-02-19T06:41:47.734Z,1.00
2018-02-19T06:42:47.738Z,0.90
2018-02-19T06:43:47.738Z,1.10
2018-02-19T06:44:47.736Z,0.90
2018-02-19T06:45:47.735Z,1.10
2018-02-19T06:46:47.741Z,0.90
2018-02-19T06:47:47.736Z,0.90
2018-02-19T06:48:47.745Z,0.90
2018-02-19T06:49:47.748Z,1.00
2018-02-19T06:50:47.740Z,1.00
2018-02-19T06:51:47.741Z,1.00
2018-02-19T06:52:47.744Z,0.90
2018-02-19T06:53:47.742Z,1.00
2018-02-19T06:54:47.754Z,0.90
2018-02-19T06:55:47.749Z,0.90
2018-02-19T06:56:47.752Z,0.80
2018-02-19T06:57:47.745Z,1.00
2018-02-19T06:58:47.747Z,1.00
2018-02-19T06:59:47.757Z,0.80
2018-02-19T07:00:47.757Z,0.90
2018-02-19T07:01:47.759Z,1.00
2018-02-19T07:02:47.755Z,1.00
2018-02-19T07:03:47.751Z,1.10
2018-02-19T07:04:47.751Z,1.10
2018-02-19T07:05:47.759Z,1.40
2018-02-19T07:06:47.759Z,1.30
2018-02-19T07:07:47.765Z,1.30
2018-02-19T07:08:47.762Z,1.10
2018-02-19T07:09:47.762Z,1.20
2018-02-19T07:10:47.766Z,1.10
2018-02-19T07:11:47.758Z,0.90
2018-02-19T07:12:47.765Z,1.10
2018-02-19T07:13:47.761Z,1.00
2018-02-19T07:14:47.771Z,1.10
2018-02-19T07:15:47.763Z,1.20
2018-02-19T07:16:47.767Z,1.10
2018-02-19T07:17:47.764Z,1.10
2018-02-19T07:18:47.770Z,1.10
2018-02-19T07:19:47.771Z,1.10
2018-02-19T07:20:47.773Z,1.10
2018-02-19T07:21:47.768Z,1.00
2018-02-19T07:22:47.771Z,0.90
2018-02-19T07:23:47.769Z,0.90
2018-02-19T07:24:47.770Z,0.90
2018-02-19T07:25:47.777Z,1.00
2018-02-19T07:26:47.773Z,1.50
2018-02-19T07:27:47.774Z,1.60
2018-02-19T07:28:47.775Z,1.50
2018-02-19T07:29:47.780Z,1.50
2018-02-19T07:30:47.776Z,1.10
2018-02-19T07:31:47.780Z,1.20
2018-02-19T07:32:47.782Z,0.90
2018-02-19T07:33:47.784Z,0.90
2018-02-19T07:34:47.780Z,0.90
2018-02-19T07:35:47.798Z,1.10
2018-02-19T07:36:47.786Z,1.20
2018-02-19T07:37:47.782Z,1.20
2018-02-19T07:38:47.784Z,1.10
2018-02-19T07:39:47.788Z,1.00
2018-02-19T07:40:47.784Z,1.10
2018-02-19T07:41:47.791Z,0.90
2018-02-19T07:42:47.788Z,0.80
2018-02-19T07:43:47.789Z,0.90
2018-02-19T07:44:47.794Z,0.90
2018-02-19T07:45:47.795Z,1.00
2018-02-19T07:46:47.792Z,0.80
2018-02-19T07:47:47.791Z,0.80
2018-02-19T07:48:47.792Z,0.90
2018-02-19T07:49:47.799Z,0.90
2018-02-19T07:50:47.800Z,1.00
2018-02-19T07:51:47.795Z,0.90
2018-02-19T07:52:47.796Z,1.00
2018-02-19T07:53:47.798Z,1.00
2018-02-19T07:54:47.799Z,1.00
2018-02-19T07:55:47.798Z,1.20
2018-02-19T07:56:47.801Z,1.70
2018-02-19T07:57:47.805Z,1.20
2018-02-19T07:58:47.803Z,1.20
2018-02-19T07:59:47.804Z,1.20
2018-02-19T08:00:47.809Z,1.00
2018-02-19T08:01:47.806Z,1.10
2018-02-19T08:02:47.808Z,1.30
2018-02-19T08:03:47.807Z,1.20
2018-02-19T08:04:47.811Z,1.10
2018-02-19T08:05:47.809Z,1.60
2018-02-19T08:06:47.810Z,4.20
2018-02-19T08:07:47.810Z,5.00
2018-02-19T08:08:47.816Z,2.60
2018-02-19T08:09:47.821Z,2.00
2018-02-19T08:10:47.820Z,1.30
2018-02-19T08:11:47.820Z,1.20
2018-02-19T08:12:47.827Z,1.00
2018-02-19T08:13:47.825Z,1.10
2018-02-19T08:14:47.825Z,1.10
2018-02-19T08:15:47.825Z,1.20
2018-02-19T08:16:47.826Z,1.20
2018-02-19T08:17:47.824Z,1.20
2018-02-19T08:18:47.825Z,1.50
2018-02-19T08:19:47.824Z,1.20
2018-02-19T08:20:47.828Z,1.00
2018-02-19T08:21:47.832Z,1.10
2018-02-19T08:22:47.832Z,1.20
2018-02-19T08:23:47.832Z,1.30
2018-02-19T08:24:47.834Z,1.40
2018-02-19T08:25:47.836Z,1.40
2018-02-19T08:26:47.838Z,1.20
2018-02-19T08:27:47.845Z,1.10
2018-02-19T08:28:47.846Z,1.30
2018-02-19T08:29:47.845Z,1.30
2018-02-19T08:30:47.846Z,1.20
2018-02-19T08:31:47.849Z,1.20
2018-02-19T08:32:47.849Z,1.00
2018-02-19T08:33:47.853Z,1.10
2018-02-19T08:34:47.854Z,1.10
2018-02-19T08:35:47.860Z,1.20
2018-02-19T08:36:47.866Z,1.40
2018-02-19T08:37:47.862Z,1.10
2018-02-19T08:38:47.865Z,1.00
2018-02-19T08:39:47.873Z,1.20
2018-02-19T08:40:47.873Z,1.20
2018-02-19T08:41:47.889Z,0.90
2018-02-19T08:42:47.880Z,1.10
2018-02-19T08:43:47.881Z,0.90
2018-02-19T08:44:47.879Z,1.10
2018-02-19T08:45:47.881Z,1.10
2018-02-19T08:46:47.891Z,1.00
2018-02-19T08:47:47.891Z,1.00
2018-02-19T08:48:47.892Z,1.10
2018-02-19T08:49:47.900Z,1.00
2018-02-19T08:50:47.902Z,1.00
2018-02-19T08:51:47.898Z,1.10
2018-02-19T08:52:47.907Z,1.00
2018-02-19T08:53:47.905Z,1.00
2018-02-19T08:54:47.908Z,1.20
2018-02-19T08:55:47.909Z,0.90
2018-02-19T08:56:47.912Z,1.10
2018-02-19T08:57:47.921Z,0.90
2018-02-19T08:58:47.919Z,1.00
2018-02-19T08:59:47.922Z,1.30
2018-02-19T09:00:47.930Z,1.10
2018-02-19T09:01:47.934Z,0.90
2018-02-19T09:02:47.931Z,1.10
2018-02-19T09:03:47.941Z,0.90
2018-02-19T09:04:47.951Z,0.90
2018-02-19T09:05:47.944Z,1.20
2018-02-19T09:06:47.950Z,1.10
2018-02-19T09:07:47.951Z,0.90
2018-02-19T09:08:47.949Z,1.10
2018-02-19T09:09:47.956Z,0.90
2018-02-19T09:10:47.961Z,1.00
2018-02-19T09:11:47.959Z,1.10
2018-02-19T09:12:47.967Z,1.00
2018-02-19T09:13:47.970Z,1.10
2018-02-19T09:14:47.967Z,1.00
2018-02-19T09:15:47.971Z,1.00
2018-02-19T09:16:47.979Z,1.10
2018-02-19T09:17:47.977Z,1.10
2018-02-19T09:18:48.050Z,1.30
2018-02-19T09:19:47.989Z,1.50
2018-02-19T09:20:47.987Z,1.00
2018-02-19T09:21:47.990Z,1.10
2018-02-19T09:22:48.000Z,1.30
2018-02-19T09:23:48.004Z,1.10
2018-02-19T09:24:48.005Z,1.30
2018-02-19T09:25:48.010Z,1.50
2018-02-19T09:26:48.014Z,1.30
2018-02-19T09:27:48.016Z,1.50
2018-02-19T09:28:48.020Z,1.50
2018-02-19T09:29:48.023Z,1.50
2018-02-19T09:30:48.029Z,1.60
2018-02-19T09:31:48.036Z,1.50
2018-02-19T09:32:48.033Z,1.50
2018-02-19T09:33:48.034Z,1.70
2018-02-19T09:34:48.038Z,2.00
2018-02-19T09:35:48.041Z,1.90
2018-02-19T09:36:48.050Z,1.60
2018-02-19T09:37:48.047Z,1.70
2018-02-19T09:38:48.062Z,1.60
2018-02-19T09:39:48.063Z,2.20
2018-02-19T09:40:48.058Z,2.40
2018-02-19T09:41:48.067Z,2.10
2018-02-19T09:42:48.067Z,1.90
2018-02-19T09:43:48.078Z,2.10
2018-02-19T09:44:48.079Z,1.90
2018-02-19T09:45:48.080Z,1.60
2018-02-19T09:46:48.084Z,2.30
2018-02-19T09:47:48.148Z,2.00
2018-02-19T09:48:48.090Z,2.60
2018-02-19T09:49:48.100Z,2.20
2018-02-19T09:50:48.106Z,1.80
2018-02-19T09:51:48.108Z,1.90
2018-02-19T09:52:48.111Z,1.50
2018-02-19T09:53:48.120Z,1.60
2018-02-19T09:54:48.121Z,1.60
2018-02-19T09:55:48.124Z,1.30
2018-02-19T09:56:48.123Z,1.40
2018-02-19T09:57:48.135Z,1.60
2018-02-19T09:58:48.138Z,1.50
2018-02-19T09:59:48.145Z,1.30
2018-02-19T10:00:48.148Z,1.30
2018-02-19T10:01:48.149Z,1.20
2018-02-19T10:02:48.158Z,1.40
2018-02-19T10:03:48.161Z,1.20
2018-02-19T10:04:48.160Z,1.10
2018-02-19T10:05:48.169Z,1.20
2018-02-19T10:06:48.178Z,1.30
2018-02-19T10:07:48.180Z,1.30
2018-02-19T10:08:48.185Z,1.20
2018-02-19T10:09:48.189Z,1.10
2018-02-19T10:10:48.191Z,1.20
2018-02-19T10:11:48.203Z,1.20
2018-02-19T10:12:48.205Z,1.10
2018-02-19T10:13:48.204Z,1.10
2018-02-19T10:14:48.217Z,1.20
2018-02-19T10:15:48.221Z,1.50
2018-02-19T10:16:48.224Z,1.70
2018-02-19T10:17:48.231Z,1.50
2018-02-19T10:18:48.230Z,1.80
2018-02-19T10:19:48.242Z,1.20
2018-02-19T10:20:48.245Z,1.20
2018-02-19T10:21:48.250Z,1.30
2018-02-19T10:22:48.252Z,1.40
2018-02-19T10:23:48.265Z,1.10
2018-02-19T10:24:48.267Z,1.00
2018-02-19T10:25:48.274Z,1.40
2018-02-19T10:26:48.284Z,1.40
2018-02-19T10:27:48.279Z,1.20
2018-02-19T10:28:48.289Z,1.00
2018-02-19T10:29:48.297Z,0.90
2018-02-19T10:30:48.303Z,1.20
2018-02-19T10:31:48.303Z,1.20
2018-02-19T10:32:48.309Z,1.30
2018-02-19T10:33:48.314Z,1.40
2018-02-19T10:34:48.327Z,1.20
2018-02-19T10:35:48.331Z,1.20
2018-02-19T10:36:48.343Z,1.00
2018-02-19T10:37:48.346Z,1.00
2018-02-19T10:38:48.343Z,1.00
2018-02-19T10:39:48.354Z,1.40
2018-02-19T10:40:48.353Z,1.20
2018-02-19T10:41:48.362Z,1.20
2018-02-19T10:42:48.368Z,1.00
2018-02-19T10:43:48.373Z,1.20
2018-02-19T10:44:48.431Z,1.10
2018-02-19T10:45:48.390Z,1.20
2018-02-19T10:46:48.392Z,1.10
2018-02-19T10:47:48.398Z,1.10
2018-02-19T10:48:48.409Z,1.20
2018-02-19T10:49:48.410Z,1.10
2018-02-19T10:50:48.423Z,1.30
2018-02-19T10:51:48.428Z,1.00
2018-02-19T10:52:48.429Z,1.10
2018-02-19T10:53:48.437Z,1.10
2018-02-19T10:54:48.442Z,1.00
2018-02-19T10:55:48.449Z,1.20
2018-02-19T10:56:48.455Z,1.00
2018-02-19T10:57:48.467Z,1.20
2018-02-19T10:58:48.469Z,1.00
2018-02-19T10:59:48.476Z,1.80
2018-02-19T11:00:48.482Z,1.80
2018-02-19T11:01:48.495Z,1.00
2018-02-19T11:02:48.500Z,1.20
2018-02-19T11:03:48.507Z,1.20
2018-02-19T11:04:48.515Z,1.10
2018-02-19T11:05:48.517Z,1.00
2018-02-19T11:06:48.530Z,1.20
2018-02-19T11:07:48.530Z,1.00
2018-02-19T11:08:48.543Z,1.30
2018-02-19T11:09:48.558Z,1.10
2018-02-19T11:10:48.557Z,1.30
2018-02-19T11:11:48.564Z,1.20
2018-02-19T11:12:48.567Z,1.30
2018-02-19T11:13:48.575Z,1.30
2018-02-19T11:14:48.582Z,1.30
2018-02-19T11:15:48.594Z,1.20
2018-02-19T11:16:48.602Z,1.10
2018-02-19T11:17:48.610Z,1.20
2018-02-19T11:18:48.620Z,0.90
2018-02-19T11:19:48.626Z,1.40
2018-02-19T11:20:48.630Z,1.20
2018-02-19T11:21:48.637Z,1.30
2018-02-19T11:22:48.645Z,1.20
2018-02-19T11:23:48.651Z,1.30
2018-02-19T11:24:48.667Z,1.40
2018-02-19T11:25:48.668Z,1.10
2018-02-19T11:26:48.683Z,1.30
2018-02-19T11:27:48.686Z,1.30
2018-02-19T11:28:48.699Z,1.30
2018-02-19T11:29:48.755Z,1.30
2018-02-19T11:30:48.711Z,1.20
2018-02-19T11:31:48.725Z,1.10
2018-02-19T11:32:48.729Z,1.20
2018-02-19T11:33:48.736Z,1.10
2018-02-19T11:34:48.752Z,1.40
2018-02-19T11:35:48.765Z,1.30
2018-02-19T11:36:48.770Z,1.00
2018-02-19T11:37:48.777Z,1.20
2018-02-19T11:38:55.379Z,1.20
2018-02-19T11:39:48.797Z,1.30
2018-02-19T11:40:48.806Z,1.20
2018-02-19T11:41:48.817Z,1.20
2018-02-19T11:42:48.827Z,1.10
2018-02-19T11:43:48.832Z,1.40
2018-02-19T11:44:48.842Z,1.40
2018-02-19T11:45:48.852Z,1.40
2018-02-19T11:46:48.863Z,1.20
2018-02-19T11:47:48.871Z,1.20
2018-02-19T11:48:48.873Z,1.20
2018-02-19T11:49:48.888Z,1.20
2018-02-19T11:50:48.892Z,1.20
2018-02-19T11:51:48.905Z,1.20
2018-02-19T11:52:48.909Z,1.30
2018-02-19T11:53:48.924Z,1.40
2018-02-19T11:54:48.934Z,1.00
2018-02-19T11:55:48.936Z,1.30
2018-02-19T11:56:48.948Z,1.40
2018-02-19T11:57:48.960Z,1.10
2018-02-19T11:58:48.969Z,1.40
2018-02-19T11:59:49.006Z,1.10
2018-02-19T12:00:48.981Z,1.10
2018-02-19T12:01:48.994Z,1.40
2018-02-19T12:02:49.005Z,1.20
2018-02-19T12:03:49.013Z,1.30
2018-02-19T12:04:49.016Z,1.40
2018-02-19T12:05:49.031Z,1.40
2018-02-19T12:06:49.043Z,1.50
2018-02-19T12:07:49.043Z,1.60
2018-02-19T12:08:49.076Z,1.30
2018-02-19T12:09:49.063Z,1.70
2018-02-19T12:10:49.072Z,1.40
2018-02-19T12:11:49.084Z,1.40
2018-02-19T12:12:49.088Z,1.40
2018-02-19T12:13:49.098Z,1.60
2018-02-19T12:14:49.104Z,1.50
2018-02-19T12:15:49.118Z,1.60
2018-02-19T12:16:49.127Z,1.60
2018-02-19T12:17:49.137Z,1.50
2018-02-19T12:18:49.144Z,1.70
2018-02-19T12:19:49.151Z,1.70
2018-02-19T12:20:49.158Z,1.60
2018-02-19T12:21:49.164Z,1.80
2018-02-19T12:22:49.173Z,1.60
2018-02-19T12:23:49.179Z,1.60
2018-02-19T12:24:49.194Z,1.50
2018-02-19T12:25:49.196Z,1.60
2018-02-19T12:26:49.210Z,1.40
2018-02-19T12:27:49.219Z,1.70
2018-02-19T12:28:49.227Z,1.80
2018-02-19T12:29:49.230Z,1.90
2018-02-19T12:30:49.241Z,1.60
2018-02-19T12:31:49.249Z,2.10
2018-02-19T12:32:49.258Z,1.60
2018-02-19T12:33:49.269Z,1.90
2018-02-19T12:34:49.277Z,1.70
2018-02-19T12:35:49.288Z,2.00
2018-02-19T12:36:49.291Z,2.10
2018-02-19T12:37:49.305Z,2.40
2018-02-19T12:38:49.315Z,2.20
2018-02-19T12:39:49.320Z,2.10
2018-02-19T12:40:49.334Z,2.30
2018-02-19T12:41:49.340Z,2.00
2018-02-19T12:42:49.346Z,2.30
2018-02-19T12:43:49.369Z,2.40
2018-02-19T12:44:49.378Z,2.30
2018-02-19T12:45:49.383Z,2.10
2018-02-19T12:46:49.392Z,2.50
2018-02-19T12:47:49.396Z,2.30
2018-02-19T12:48:49.407Z,2.30
2018-02-19T12:49:49.416Z,2.20
2018-02-19T12:50:49.433Z,2.10
2018-02-19T12:51:49.439Z,2.40
2018-02-19T12:52:49.448Z,2.50
2018-02-19T12:53:49.465Z,2.50
2018-02-19T12:54:49.470Z,2.60
2018-02-19T12:55:49.480Z,2.60
2018-02-19T12:56:49.497Z,3.70
2018-02-19T12:57:49.508Z,3.10
2018-02-19T12:58:49.521Z,2.50
2018-02-19T12:59:49.529Z,2.50
2018-02-19T13:00:49.535Z,2.60
2018-02-19T13:01:49.550Z,3.20
2018-02-19T13:02:49.563Z,3.50
2018-02-19T13:03:49.566Z,3.40
2018-02-19T13:04:49.575Z,3.50
2018-02-19T13:05:49.586Z,2.90
2018-02-19T13:06:49.596Z,3.60
2018-02-19T13:07:49.612Z,3.40
2018-02-19T13:08:49.624Z,3.40
2018-02-19T13:09:49.627Z,3.60
2018-02-19T13:10:49.643Z,3.80
2018-02-19T13:11:49.652Z,3.50
2018-02-19T13:12:49.657Z,3.60
2018-02-19T13:13:49.674Z,3.50
2018-02-19T13:14:49.683Z,3.30
2018-02-19T13:15:49.688Z,3.60
2018-02-19T13:16:49.700Z,3.10
2018-02-19T13:17:49.716Z,3.10
2018-02-19T13:18:49.726Z,2.90